sensor_id;sensor_type;location;lat;lon;timestamp;pressure;altitude;pressure_sealevel;temperature;humidity
30421;BME280;17218;54.070;10.012;2023-08-31T00:01:30;100216.03;;;15.80;100.00
30421;BME280;17218;54.070;10.012;2023-08-31T00:03:55;100205.78;;;15.75;100.00
30421;BME280;17218;54.070;10.012;2023-08-31T00:06:22;100222.25;;;15.77;100.00
30421;BME280;17218;54.070;10.012;2023-08-31T00:08:49;100230.06;;;15.77;100.00
30421;BME280;17218;54.070;10.012;2023-08-31T00:11:15;100224.84;;;15.77;100.00
30421;BME280;17218;54.070;10.012;2023-08-31T00:13:43;100219.50;;;15.80;100.00
30421;BME280;17218;54.070;10.012;2023-08-31T00:16:09;100217.50;;;15.63;100.00
30421;BME280;17218;54.070;10.012;2023-08-31T00:18:37;100209.19;;;15.53;100.00
30421;BME280;17218;54.070;10.012;2023-08-31T00:21:04;100210.66;;;15.36;100.00
30421;BME280;17218;54.070;10.012;2023-08-31T00:23:31;100220.56;;;15.26;100.00
30421;BME280;17218;54.070;10.012;2023-08-31T00:25:57;100216.19;;;15.27;100.00
30421;BME280;17218;54.070;10.012;2023-08-31T00:28:24;100213.66;;;15.25;100.00
30421;BME280;17218;54.070;10.012;2023-08-31T00:30:53;100221.47;;;15.25;100.00
30421;BME280;17218;54.070;10.012;2023-08-31T00:33:20;100219.69;;;15.26;100.00
30421;BME280;17218;54.070;10.012;2023-08-31T00:35:47;100220.38;;;15.31;100.00
30421;BME280;17218;54.070;10.012;2023-08-31T00:38:14;100215.13;;;15.33;100.00
30421;BME280;17218;54.070;10.012;2023-08-31T00:40:40;100209.94;;;15.31;100.00
30421;BME280;17218;54.070;10.012;2023-08-31T00:43:07;100208.38;;;15.27;100.00
30421;BME280;17218;54.070;10.012;2023-08-31T00:45:34;100213.72;;;15.22;100.00
30421;BME280;17218;54.070;10.012;2023-08-31T00:48:03;100206.13;;;15.16;100.00
30421;BME280;17218;54.070;10.012;2023-08-31T00:50:29;100206.22;;;15.13;100.00
30421;BME280;17218;54.070;10.012;2023-08-31T00:52:56;100206.03;;;14.94;100.00
30421;BME280;17218;54.070;10.012;2023-08-31T00:55:23;100213.75;;;14.97;100.00
30421;BME280;17218;54.070;10.012;2023-08-31T00:57:49;100207.63;;;14.98;100.00
30421;BME280;17218;54.070;10.012;2023-08-31T01:00:16;100214.78;;;14.91;100.00
30421;BME280;17218;54.070;10.012;2023-08-31T01:02:50;100220.81;;;14.93;100.00
30421;BME280;17218;54.070;10.012;2023-08-31T01:05:29;100216.59;;;14.89;100.00
30421;BME280;17218;54.070;10.012;2023-08-31T01:08:09;100219.25;;;14.87;100.00
30421;BME280;17218;54.070;10.012;2023-08-31T01:10:44;100219.91;;;14.94;100.00
30421;BME280;17218;54.070;10.012;2023-08-31T01:13:19;100217.41;;;14.91;100.00
30421;BME280;17218;54.070;10.012;2023-08-31T01:15:59;100216.47;;;14.94;100.00
30421;BME280;17218;54.070;10.012;2023-08-31T01:18:28;100222.44;;;14.97;100.00
30421;BME280;17218;54.070;10.012;2023-08-31T01:21:05;100219.69;;;15.00;100.00
30421;BME280;17218;54.070;10.012;2023-08-31T01:23:44;100230.03;;;15.03;100.00
30421;BME280;17218;54.070;10.012;2023-08-31T01:26:11;100229.94;;;15.07;100.00
30421;BME280;17218;54.070;10.012;2023-08-31T01:28:38;100235.84;;;15.12;100.00
30421;BME280;17218;54.070;10.012;2023-08-31T01:31:05;100240.09;;;15.14;100.00
30421;BME280;17218;54.070;10.012;2023-08-31T01:33:32;100249.78;;;15.11;100.00
30421;BME280;17218;54.070;10.012;2023-08-31T01:36:01;100252.22;;;14.90;100.00
30421;BME280;17218;54.070;10.012;2023-08-31T01:38:34;100254.13;;;14.85;100.00
30421;BME280;17218;54.070;10.012;2023-08-31T01:41:07;100247.09;;;14.87;100.00
30421;BME280;17218;54.070;10.012;2023-08-31T01:43:35;100253.09;;;14.89;100.00
30421;BME280;17218;54.070;10.012;2023-08-31T01:46:01;100249.63;;;14.90;100.00
30421;BME280;17218;54.070;10.012;2023-08-31T01:48:28;100248.88;;;14.86;100.00
30421;BME280;17218;54.070;10.012;2023-08-31T01:50:54;100241.78;;;14.90;100.00
30421;BME280;17218;54.070;10.012;2023-08-31T01:53:21;100244.28;;;14.93;100.00
30421;BME280;17218;54.070;10.012;2023-08-31T01:55:47;100247.75;;;14.94;100.00
30421;BME280;17218;54.070;10.012;2023-08-31T01:58:15;100246.91;;;14.93;100.00
30421;BME280;17218;54.070;10.012;2023-08-31T02:00:42;100246.47;;;14.78;100.00
30421;BME280;17218;54.070;10.012;2023-08-31T02:03:09;100245.50;;;14.83;100.00
30421;BME280;17218;54.070;10.012;2023-08-31T02:05:36;100251.31;;;14.91;100.00
30421;BME280;17218;54.070;10.012;2023-08-31T02:08:03;100248.91;;;14.85;100.00
30421;BME280;17218;54.070;10.012;2023-08-31T02:10:29;100246.47;;;14.78;100.00
30421;BME280;17218;54.070;10.012;2023-08-31T02:12:56;100247.34;;;14.79;100.00
30421;BME280;17218;54.070;10.012;2023-08-31T02:15:24;100246.78;;;14.69;100.00
30421;BME280;17218;54.070;10.012;2023-08-31T02:17:50;100249.22;;;14.74;100.00
30421;BME280;17218;54.070;10.012;2023-08-31T02:20:17;100248.28;;;14.76;100.00
30421;BME280;17218;54.070;10.012;2023-08-31T02:22:45;100251.03;;;14.72;100.00
30421;BME280;17218;54.070;10.012;2023-08-31T02:25:12;100245.91;;;14.69;100.00
30421;BME280;17218;54.070;10.012;2023-08-31T02:27:39;100258.00;;;14.71;100.00
30421;BME280;17218;54.070;10.012;2023-08-31T02:30:06;100252.28;;;14.60;100.00
30421;BME280;17218;54.070;10.012;2023-08-31T02:32:34;100263.69;;;14.57;100.00
30421;BME280;17218;54.070;10.012;2023-08-31T02:35:01;100267.34;;;14.50;100.00
30421;BME280;17218;54.070;10.012;2023-08-31T02:37:28;100265.47;;;14.55;100.00
30421;BME280;17218;54.070;10.012;2023-08-31T02:39:54;100262.66;;;14.61;100.00
30421;BME280;17218;54.070;10.012;2023-08-31T02:42:20;100266.81;;;14.67;100.00
30421;BME280;17218;54.070;10.012;2023-08-31T02:44:51;100271.16;;;14.66;100.00
30421;BME280;17218;54.070;10.012;2023-08-31T02:47:18;100258.00;;;14.71;100.00
30421;BME280;17218;54.070;10.012;2023-08-31T02:49:46;100270.06;;;14.74;100.00
30421;BME280;17218;54.070;10.012;2023-08-31T02:52:13;100271.03;;;14.71;100.00
30421;BME280;17218;54.070;10.012;2023-08-31T02:54:39;100258.75;;;14.75;100.00
30421;BME280;17218;54.070;10.012;2023-08-31T02:57:06;100260.59;;;14.71;100.00
30421;BME280;17218;54.070;10.012;2023-08-31T02:59:32;100258.06;;;14.70;100.00
30421;BME280;17218;54.070;10.012;2023-08-31T03:02:01;100259.09;;;14.64;100.00
30421;BME280;17218;54.070;10.012;2023-08-31T03:04:27;100256.50;;;14.64;100.00
30421;BME280;17218;54.070;10.012;2023-08-31T03:06:55;100263.56;;;14.60;100.00
30421;BME280;17218;54.070;10.012;2023-08-31T03:09:21;100266.16;;;14.60;100.00
30421;BME280;17218;54.070;10.012;2023-08-31T03:11:48;100262.69;;;14.60;100.00
30421;BME280;17218;54.070;10.012;2023-08-31T03:14:14;100255.81;;;14.59;100.00
30421;BME280;17218;54.070;10.012;2023-08-31T03:16:41;100268.09;;;14.53;100.00
30421;BME280;17218;54.070;10.012;2023-08-31T03:19:07;100264.66;;;14.53;100.00
30421;BME280;17218;54.070;10.012;2023-08-31T03:21:34;100265.72;;;14.47;100.00
30421;BME280;17218;54.070;10.012;2023-08-31T03:24:02;100278.88;;;14.42;100.00
30421;BME280;17218;54.070;10.012;2023-08-31T03:26:28;100275.81;;;14.28;100.00
30421;BME280;17218;54.070;10.012;2023-08-31T03:28:55;100279.34;;;14.27;100.00
30421;BME280;17218;54.070;10.012;2023-08-31T03:31:22;100280.16;;;14.29;100.00
30421;BME280;17218;54.070;10.012;2023-08-31T03:33:49;100279.25;;;14.30;100.00
30421;BME280;17218;54.070;10.012;2023-08-31T03:39:39;100271.16;;;14.11;100.00
30421;BME280;17218;54.070;10.012;2023-08-31T03:42:06;100271.47;;;13.98;100.00
30421;BME280;17218;54.070;10.012;2023-08-31T03:44:33;100271.63;;;13.93;100.00
30421;BME280;17218;54.070;10.012;2023-08-31T03:46:59;100271.47;;;13.98;100.00
30421;BME280;17218;54.070;10.012;2023-08-31T03:49:25;100277.88;;;13.88;100.00
30421;BME280;17218;54.070;10.012;2023-08-31T03:51:52;100278.03;;;13.81;100.00
30421;BME280;17218;54.070;10.012;2023-08-31T03:54:19;100276.44;;;13.77;100.00
30421;BME280;17218;54.070;10.012;2023-08-31T03:56:47;100275.47;;;13.80;100.00
30421;BME280;17218;54.070;10.012;2023-08-31T03:59:13;100276.19;;;13.85;100.00
30421;BME280;17218;54.070;10.012;2023-08-31T04:01:40;100281.38;;;13.87;100.00
30421;BME280;17218;54.070;10.012;2023-08-31T04:04:06;100286.53;;;13.88;100.00
30421;BME280;17218;54.070;10.012;2023-08-31T04:06:33;100283.03;;;13.89;100.00
30421;BME280;17218;54.070;10.012;2023-08-31T04:09:00;100277.41;;;13.73;100.00
30421;BME280;17218;54.070;10.012;2023-08-31T04:11:26;100284.19;;;13.79;100.00
30421;BME280;17218;54.070;10.012;2023-08-31T04:13:54;100283.31;;;13.78;100.00
30421;BME280;17218;54.070;10.012;2023-08-31T04:16:21;100286.78;;;13.79;100.00
30421;BME280;17218;54.070;10.012;2023-08-31T04:18:47;100287.75;;;13.75;100.00
30421;BME280;17218;54.070;10.012;2023-08-31T04:21:16;100291.34;;;13.70;100.00
30421;BME280;17218;54.070;10.012;2023-08-31T04:23:43;100282.78;;;13.67;100.00
30421;BME280;17218;54.070;10.012;2023-08-31T04:26:10;100289.03;;;13.59;100.00
30421;BME280;17218;54.070;10.012;2023-08-31T04:28:37;100293.41;;;13.59;100.00
30421;BME280;17218;54.070;10.012;2023-08-31T04:31:06;100290.66;;;13.64;100.00
30421;BME280;17218;54.070;10.012;2023-08-31T04:33:33;100292.50;;;13.60;100.00
30421;BME280;17218;54.070;10.012;2023-08-31T04:36:00;100301.22;;;13.59;100.00
30421;BME280;17218;54.070;10.012;2023-08-31T04:38:26;100299.66;;;13.50;100.00
30421;BME280;17218;54.070;10.012;2023-08-31T04:40:53;100304.94;;;13.47;100.00
30421;BME280;17218;54.070;10.012;2023-08-31T04:43:20;100309.25;;;13.50;100.00
30421;BME280;17218;54.070;10.012;2023-08-31T04:45:46;100308.69;;;13.36;100.00
30421;BME280;17218;54.070;10.012;2023-08-31T04:48:14;100315.50;;;13.41;100.00
30421;BME280;17218;54.070;10.012;2023-08-31T04:50:41;100310.75;;;13.23;100.00
30421;BME280;17218;54.070;10.012;2023-08-31T04:53:07;100316.75;;;13.27;100.00
30421;BME280;17218;54.070;10.012;2023-08-31T04:55:34;100314.88;;;13.32;100.00
30421;BME280;17218;54.070;10.012;2023-08-31T04:58:00;100323.56;;;13.31;100.00
30421;BME280;17218;54.070;10.012;2023-08-31T05:00:26;100319.22;;;13.32;100.00
30421;BME280;17218;54.070;10.012;2023-08-31T05:02:53;100311.44;;;13.30;100.00
30421;BME280;17218;54.070;10.012;2023-08-31T05:05:21;100320.38;;;13.20;100.00
30421;BME280;17218;54.070;10.012;2023-08-31T05:07:47;100330.84;;;13.17;100.00
30421;BME280;17218;54.070;10.012;2023-08-31T05:10:14;100330.06;;;13.15;100.00
30421;BME280;17218;54.070;10.012;2023-08-31T05:12:42;100325.00;;;13.08;100.00
30421;BME280;17218;54.070;10.012;2023-08-31T05:15:09;100329.47;;;13.03;100.00
30421;BME280;17218;54.070;10.012;2023-08-31T05:17:35;100332.34;;;12.91;100.00
30421;BME280;17218;54.070;10.012;2023-08-31T05:20:02;100329.69;;;12.94;100.00
30421;BME280;17218;54.070;10.012;2023-08-31T05:22:31;100333.22;;;12.90;100.00
30421;BME280;17218;54.070;10.012;2023-08-31T05:24:57;100329.00;;;12.85;100.00
30421;BME280;17218;54.070;10.012;2023-08-31T05:27:25;100336.00;;;12.83;100.00
30421;BME280;17218;54.070;10.012;2023-08-31T05:29:52;100345.81;;;12.69;100.00
30421;BME280;17218;54.070;10.012;2023-08-31T05:32:18;100351.09;;;12.66;100.00
30421;BME280;17218;54.070;10.012;2023-08-31T05:34:45;100342.19;;;12.76;100.00
30421;BME280;17218;54.070;10.012;2023-08-31T05:37:11;100342.06;;;12.82;100.00
30421;BME280;17218;54.070;10.012;2023-08-31T05:39:40;100349.03;;;12.80;100.00
30421;BME280;17218;54.070;10.012;2023-08-31T05:42:06;100358.56;;;12.80;100.00
30421;BME280;17218;54.070;10.012;2023-08-31T05:44:33;100363.81;;;12.78;100.00
30421;BME280;17218;54.070;10.012;2023-08-31T05:46:59;100363.03;;;12.74;100.00
30421;BME280;17218;54.070;10.012;2023-08-31T05:49:26;100365.59;;;12.76;100.00
30421;BME280;17218;54.070;10.012;2023-08-31T05:51:52;100375.22;;;12.71;100.00
30421;BME280;17218;54.070;10.012;2023-08-31T05:54:19;100375.47;;;12.60;100.00
30421;BME280;17218;54.070;10.012;2023-08-31T05:56:46;100373.00;;;12.55;100.00
30421;BME280;17218;54.070;10.012;2023-08-31T05:59:13;100381.41;;;12.65;100.00
30421;BME280;17218;54.070;10.012;2023-08-31T06:01:39;100390.94;;;12.66;100.00
30421;BME280;17218;54.070;10.012;2023-08-31T06:04:06;100391.03;;;12.63;100.00
30421;BME280;17218;54.070;10.012;2023-08-31T06:06:32;100390.78;;;12.72;100.00
30421;BME280;17218;54.070;10.012;2023-08-31T06:08:59;100389.81;;;12.78;100.00
30421;BME280;17218;54.070;10.012;2023-08-31T06:11:25;100395.66;;;12.88;100.00
30421;BME280;17218;54.070;10.012;2023-08-31T06:13:53;100387.81;;;12.90;100.00
30421;BME280;17218;54.070;10.012;2023-08-31T06:16:19;100397.69;;;12.75;100.00
30421;BME280;17218;54.070;10.012;2023-08-31T06:18:46;100396.78;;;12.76;100.00
30421;BME280;17218;54.070;10.012;2023-08-31T06:21:12;100390.66;;;12.79;100.00
30421;BME280;17218;54.070;10.012;2023-08-31T06:23:39;100401.75;;;12.87;100.00
30421;BME280;17218;54.070;10.012;2023-08-31T06:26:05;100400.13;;;12.83;100.00
30421;BME280;17218;54.070;10.012;2023-08-31T06:28:32;100404.13;;;12.98;100.00
30421;BME280;17218;54.070;10.012;2023-08-31T06:31:00;100402.97;;;13.10;100.00
30421;BME280;17218;54.070;10.012;2023-08-31T06:33:26;100397.81;;;13.08;100.00
30421;BME280;17218;54.070;10.012;2023-08-31T06:35:52;100403.75;;;13.14;100.00
30421;BME280;17218;54.070;10.012;2023-08-31T06:38:19;100399.97;;;13.27;100.00
30421;BME280;17218;54.070;10.012;2023-08-31T06:40:46;100396.47;;;13.28;100.00
30421;BME280;17218;54.070;10.012;2023-08-31T06:43:13;100393.72;;;13.34;100.00
30421;BME280;17218;54.070;10.012;2023-08-31T06:45:39;100393.69;;;13.36;100.00
30421;BME280;17218;54.070;10.012;2023-08-31T06:48:07;100390.22;;;13.35;100.00
30421;BME280;17218;54.070;10.012;2023-08-31T06:50:34;100397.09;;;13.38;100.00
30421;BME280;17218;54.070;10.012;2023-08-31T06:53:01;100403.75;;;13.50;100.00
30421;BME280;17218;54.070;10.012;2023-08-31T06:55:28;100390.50;;;13.61;100.00
30421;BME280;17218;54.070;10.012;2023-08-31T06:57:54;100394.63;;;13.70;100.00
30421;BME280;17218;54.070;10.012;2023-08-31T07:00:21;100397.81;;;13.80;100.00
30421;BME280;17218;54.070;10.012;2023-08-31T07:02:47;100391.59;;;13.86;100.00
30421;BME280;17218;54.070;10.012;2023-08-31T07:05:15;100397.63;;;13.88;100.00
30421;BME280;17218;54.070;10.012;2023-08-31T07:07:42;100394.38;;;13.79;100.00
30421;BME280;17218;54.070;10.012;2023-08-31T07:10:08;100395.03;;;13.88;100.00
30421;BME280;17218;54.070;10.012;2023-08-31T07:12:35;100406.16;;;13.93;100.00
30421;BME280;17218;54.070;10.012;2023-08-31T07:15:01;100392.31;;;13.91;100.00
30421;BME280;17218;54.070;10.012;2023-08-31T07:17:29;100394.25;;;13.84;100.00
30421;BME280;17218;54.070;10.012;2023-08-31T07:19:55;100389.94;;;13.83;100.00
30421;BME280;17218;54.070;10.012;2023-08-31T07:22:23;100396.31;;;13.71;100.00
30421;BME280;17218;54.070;10.012;2023-08-31T07:24:49;100410.72;;;13.85;100.00
30421;BME280;17218;54.070;10.012;2023-08-31T07:27:16;100411.41;;;13.91;100.00
30421;BME280;17218;54.070;10.012;2023-08-31T07:29:42;100397.28;;;14.00;100.00
30421;BME280;17218;54.070;10.012;2023-08-31T07:32:09;100400.34;;;14.16;100.00
30421;BME280;17218;54.070;10.012;2023-08-31T07:34:35;100397.44;;;14.27;100.00
30421;BME280;17218;54.070;10.012;2023-08-31T07:37:02;100383.50;;;14.28;100.00
30421;BME280;17218;54.070;10.012;2023-08-31T07:39:30;100389.31;;;14.38;100.00
30421;BME280;17218;54.070;10.012;2023-08-31T07:41:57;100382.38;;;14.37;100.00
30421;BME280;17218;54.070;10.012;2023-08-31T07:44:24;100389.97;;;14.45;100.00
30421;BME280;17218;54.070;10.012;2023-08-31T07:46:50;100379.56;;;14.45;100.00
30421;BME280;17218;54.070;10.012;2023-08-31T07:49:17;100382.06;;;14.48;100.00
30421;BME280;17218;54.070;10.012;2023-08-31T07:51:43;100394.97;;;14.53;100.00
30421;BME280;17218;54.070;10.012;2023-08-31T07:54:10;100391.56;;;14.51;100.00
30421;BME280;17218;54.070;10.012;2023-08-31T07:56:39;100386.66;;;14.40;100.00
30421;BME280;17218;54.070;10.012;2023-08-31T07:59:07;100387.59;;;14.37;100.00
30421;BME280;17218;54.070;10.012;2023-08-31T08:01:33;100401.16;;;14.49;100.00
30421;BME280;17218;54.070;10.012;2023-08-31T08:04:00;100403.41;;;14.61;100.00
30421;BME280;17218;54.070;10.012;2023-08-31T08:06:26;100398.19;;;14.61;100.00
30421;BME280;17218;54.070;10.012;2023-08-31T08:08:53;100404.03;;;14.70;100.00
30421;BME280;17218;54.070;10.012;2023-08-31T08:11:19;100391.13;;;14.65;100.00
30421;BME280;17218;54.070;10.012;2023-08-31T08:13:47;100398.13;;;14.64;100.00
30421;BME280;17218;54.070;10.012;2023-08-31T08:16:13;100399.34;;;14.83;100.00
30421;BME280;17218;54.070;10.012;2023-08-31T08:18:40;100394.41;;;15.02;100.00
30421;BME280;17218;54.070;10.012;2023-08-31T08:21:07;100397.56;;;15.12;100.00
30421;BME280;17218;54.070;10.012;2023-08-31T08:23:33;100397.06;;;15.27;100.00
30421;BME280;17218;54.070;10.012;2023-08-31T08:25:59;100405.31;;;15.42;100.00
30421;BME280;17218;54.070;10.012;2023-08-31T08:28:26;100384.56;;;15.37;100.00
30421;BME280;17218;54.070;10.012;2023-08-31T08:30:54;100391.91;;;15.53;100.00
30421;BME280;17218;54.070;10.012;2023-08-31T08:33:21;100391.91;;;15.53;100.00
30421;BME280;17218;54.070;10.012;2023-08-31T08:35:48;100380.59;;;15.53;100.00
30421;BME280;17218;54.070;10.012;2023-08-31T08:38:14;100385.78;;;15.54;100.00
30421;BME280;17218;54.070;10.012;2023-08-31T08:40:40;100384.22;;;15.48;100.00
30421;BME280;17218;54.070;10.012;2023-08-31T08:43:07;100392.75;;;15.54;100.00
30421;BME280;17218;54.070;10.012;2023-08-31T08:45:36;100385.19;;;15.46;100.00
30421;BME280;17218;54.070;10.012;2023-08-31T08:48:06;100386.72;;;15.52;100.00
30421;BME280;17218;54.070;10.012;2023-08-31T08:50:34;100386.16;;;15.69;100.00
30421;BME280;17218;54.070;10.012;2023-08-31T08:53:01;100381.34;;;15.82;100.00
30421;BME280;17218;54.070;10.012;2023-08-31T08:55:28;100387.72;;;16.00;100.00
30421;BME280;17218;54.070;10.012;2023-08-31T08:57:55;100385.75;;;16.07;100.00
30421;BME280;17218;54.070;10.012;2023-08-31T09:00:21;100390.16;;;16.05;100.00
30421;BME280;17218;54.070;10.012;2023-08-31T09:02:48;100396.97;;;16.09;100.00
30421;BME280;17218;54.070;10.012;2023-08-31T09:05:16;100408.00;;;16.17;100.00
30421;BME280;17218;54.070;10.012;2023-08-31T09:08:02;100399.19;;;16.20;100.00
30421;BME280;17218;54.070;10.012;2023-08-31T09:10:36;100408.63;;;16.24;100.00
30421;BME280;17218;54.070;10.012;2023-08-31T09:13:07;100415.47;;;16.28;100.00
30421;BME280;17218;54.070;10.012;2023-08-31T09:15:43;100408.88;;;16.42;100.00
30421;BME280;17218;54.070;10.012;2023-08-31T09:18:14;100407.13;;;16.65;100.00
30421;BME280;17218;54.070;10.012;2023-08-31T09:20:47;100401.81;;;16.68;100.00
30421;BME280;17218;54.070;10.012;2023-08-31T09:23:13;100408.34;;;16.56;100.00
30421;BME280;17218;54.070;10.012;2023-08-31T09:25:44;100416.38;;;16.51;100.00
30421;BME280;17218;54.070;10.012;2023-08-31T09:28:12;100404.31;;;16.47;100.00
30421;BME280;17218;54.070;10.012;2023-08-31T09:30:38;100415.53;;;16.27;100.00
30421;BME280;17218;54.070;10.012;2023-08-31T09:33:07;100415.72;;;16.20;100.00
30421;BME280;17218;54.070;10.012;2023-08-31T09:35:34;100419.81;;;16.04;100.00
30421;BME280;17218;54.070;10.012;2023-08-31T09:38:07;100416.47;;;15.98;100.00
30421;BME280;17218;54.070;10.012;2023-08-31T09:40:34;100411.97;;;16.04;100.00
30421;BME280;17218;54.070;10.012;2023-08-31T09:43:00;100413.13;;;16.20;100.00
30421;BME280;17218;54.070;10.012;2023-08-31T09:45:29;100420.34;;;16.38;100.00
30421;BME280;17218;54.070;10.012;2023-08-31T09:47:56;100408.28;;;16.57;100.00
30421;BME280;17218;54.070;10.012;2023-08-31T09:50:25;100411.22;;;16.72;100.00
30421;BME280;17218;54.070;10.012;2023-08-31T09:52:55;100413.13;;;16.91;100.00
30421;BME280;17218;54.070;10.012;2023-08-31T09:55:25;100411.84;;;17.01;100.00
30421;BME280;17218;54.070;10.012;2023-08-31T09:57:52;100427.91;;;17.16;100.00
30421;BME280;17218;54.070;10.012;2023-08-31T10:00:22;100405.94;;;17.41;100.00
30421;BME280;17218;54.070;10.012;2023-08-31T10:02:49;100412.19;;;17.59;100.00
30421;BME280;17218;54.070;10.012;2023-08-31T10:05:16;100408.69;;;17.59;100.00
30421;BME280;17218;54.070;10.012;2023-08-31T10:07:43;100408.69;;;17.38;100.00
30421;BME280;17218;54.070;10.012;2023-08-31T10:10:10;100421.59;;;17.20;100.00
30421;BME280;17218;54.070;10.012;2023-08-31T10:12:39;100423.75;;;17.09;100.00
30421;BME280;17218;54.070;10.012;2023-08-31T10:15:09;100423.72;;;16.88;100.00
30421;BME280;17218;54.070;10.012;2023-08-31T10:17:36;100425.97;;;16.75;100.00
30421;BME280;17218;54.070;10.012;2023-08-31T10:20:03;100424.72;;;16.61;100.00
30421;BME280;17218;54.070;10.012;2023-08-31T10:22:31;100425.69;;;16.59;100.00
30421;BME280;17218;54.070;10.012;2023-08-31T10:24:58;100426.19;;;16.68;100.00
30421;BME280;17218;54.070;10.012;2023-08-31T10:27:25;100424.44;;;16.69;100.00
30421;BME280;17218;54.070;10.012;2023-08-31T10:29:53;100423.00;;;16.84;100.00
30421;BME280;17218;54.070;10.012;2023-08-31T10:32:19;100429.06;;;17.07;100.00
30421;BME280;17218;54.070;10.012;2023-08-31T10:35:05;100422.50;;;17.42;100.00
30421;BME280;17218;54.070;10.012;2023-08-31T10:37:32;100423.06;;;17.71;100.00
30421;BME280;17218;54.070;10.012;2023-08-31T10:40:08;100422.59;;;18.03;100.00
30421;BME280;17218;54.070;10.012;2023-08-31T10:42:44;100418.50;;;18.16;100.00
30421;BME280;17218;54.070;10.012;2023-08-31T10:45:12;100415.44;;;18.06;100.00
30421;BME280;17218;54.070;10.012;2023-08-31T10:47:40;100422.69;;;17.99;100.00
30421;BME280;17218;54.070;10.012;2023-08-31T10:50:19;100414.38;;;18.10;100.00
30421;BME280;17218;54.070;10.012;2023-08-31T10:52:46;100420.00;;;18.22;100.00
30421;BME280;17218;54.070;10.012;2023-08-31T10:55:12;100419.44;;;18.15;100.00
30421;BME280;17218;54.070;10.012;2023-08-31T10:57:40;100414.84;;;17.99;100.00
30421;BME280;17218;54.070;10.012;2023-08-31T11:00:08;100423.81;;;17.94;100.00
30421;BME280;17218;54.070;10.012;2023-08-31T11:02:38;100420.16;;;17.98;100.00
30421;BME280;17218;54.070;10.012;2023-08-31T11:05:09;100422.69;;;17.99;100.00
30421;BME280;17218;54.070;10.012;2023-08-31T11:07:37;100422.78;;;18.38;100.00
30421;BME280;17218;54.070;10.012;2023-08-31T11:10:09;100414.97;;;18.94;100.00
30421;BME280;17218;54.070;10.012;2023-08-31T11:12:36;100414.25;;;19.47;100.00
30421;BME280;17218;54.070;10.012;2023-08-31T11:15:03;100417.59;;;20.02;100.00
30421;BME280;17218;54.070;10.012;2023-08-31T11:17:30;100408.59;;;20.24;100.00
30421;BME280;17218;54.070;10.012;2023-08-31T11:20:00;100412.00;;;20.26;100.00
30421;BME280;17218;54.070;10.012;2023-08-31T11:22:30;100414.34;;;20.15;100.00
30421;BME280;17218;54.070;10.012;2023-08-31T11:24:57;100418.59;;;20.00;100.00
30421;BME280;17218;54.070;10.012;2023-08-31T11:27:23;100415.44;;;20.27;100.00
30421;BME280;17218;54.070;10.012;2023-08-31T11:29:51;100417.69;;;20.83;100.00
30421;BME280;17218;54.070;10.012;2023-08-31T11:32:17;100410.84;;;21.73;100.00
30421;BME280;17218;54.070;10.012;2023-08-31T11:34:44;100411.59;;;22.21;100.00
30421;BME280;17218;54.070;10.012;2023-08-31T11:37:13;100411.81;;;22.45;100.00
30421;BME280;17218;54.070;10.012;2023-08-31T11:39:42;100411.72;;;22.61;100.00
30421;BME280;17218;54.070;10.012;2023-08-31T11:42:09;100416.50;;;23.11;100.00
30421;BME280;17218;54.070;10.012;2023-08-31T11:44:35;100414.47;;;23.95;100.00
30421;BME280;17218;54.070;10.012;2023-08-31T11:47:02;100409.59;;;24.65;78.55
30421;BME280;17218;54.070;10.012;2023-08-31T11:49:29;100419.19;;;25.29;86.58
30421;BME280;17218;54.070;10.012;2023-08-31T11:51:56;100398.19;;;25.50;85.70
30421;BME280;17218;54.070;10.012;2023-08-31T11:54:25;100406.84;;;25.41;71.90
30421;BME280;17218;54.070;10.012;2023-08-31T11:56:52;100406.81;;;25.05;85.83
30421;BME280;17218;54.070;10.012;2023-08-31T11:59:19;100413.34;;;25.59;86.58
30421;BME280;17218;54.070;10.012;2023-08-31T12:01:48;100411.69;;;25.22;78.06
30421;BME280;17218;54.070;10.012;2023-08-31T12:04:16;100407.50;;;24.07;87.78
30421;BME280;17218;54.070;10.012;2023-08-31T12:06:46;100421.38;;;22.90;97.33
30421;BME280;17218;54.070;10.012;2023-08-31T12:09:12;100424.19;;;21.86;100.00
30421;BME280;17218;54.070;10.012;2023-08-31T12:11:40;100442.06;;;20.87;100.00
30421;BME280;17218;54.070;10.012;2023-08-31T12:14:18;100448.91;;;20.41;100.00
30421;BME280;17218;54.070;10.012;2023-08-31T12:16:45;100457.66;;;19.72;100.00
30421;BME280;17218;54.070;10.012;2023-08-31T12:19:11;100458.56;;;19.36;100.00
30421;BME280;17218;54.070;10.012;2023-08-31T12:21:38;100462.88;;;19.19;100.00
30421;BME280;17218;54.070;10.012;2023-08-31T12:24:05;100475.34;;;18.75;100.00
30421;BME280;17218;54.070;10.012;2023-08-31T12:26:32;100478.63;;;18.40;100.00
30421;BME280;17218;54.070;10.012;2023-08-31T12:29:00;100475.97;;;17.79;100.00
30421;BME280;17218;54.070;10.012;2023-08-31T12:31:26;100473.88;;;17.22;100.00
30421;BME280;17218;54.070;10.012;2023-08-31T12:33:53;100487.91;;;17.21;100.00
30421;BME280;17218;54.070;10.012;2023-08-31T12:36:19;100486.81;;;17.26;100.00